Time;durP1;ratioP1;P1;durP2;ratioP2;P2;SDS_P1;SDS_P2;PMS_P1;PMS_P2;Temp;Humidity;BMP_temperature;BMP_pressure;BME280_temperature;BME280_humidity;BME280_pressure;Samples;Min_cycle;Max_cycle;Signal;HPM_P1;HPM_P2
2022/05/03 00:00:03;;;;;;;6.70;4.13;;;11.40;99.90;;;;;;5070306;28;20472;-63
2022/05/03 00:02:44;;;;;;;6.67;4.77;;;11.40;99.90;;;;;;5070212;28;20520;-63
2022/05/03 00:05:14;;;;;;;6.10;4.10;;;11.20;99.90;;;;;;5069549;28;20488;-63
2022/05/03 00:07:47;;;;;;;5.97;4.10;;;11.20;99.90;;;;;;5069714;28;20457;-64
2022/05/03 00:10:19;;;;;;;6.07;4.37;;;11.20;99.90;;;;;;5070059;28;20491;-64
2022/05/03 00:12:49;;;;;;;10.00;5.77;;;11.30;99.90;;;;;;5070353;28;20449;-65
2022/05/03 00:15:19;;;;;;;8.07;5.00;;;11.40;99.90;;;;;;5069804;28;20539;-64
2022/05/03 00:17:46;;;;;;;6.67;4.20;;;11.60;99.90;;;;;;5070174;28;20485;-64
2022/05/03 00:20:14;;;;;;;7.07;4.70;;;11.70;99.90;;;;;;5070083;28;20470;-64
2022/05/03 00:22:43;;;;;;;8.27;4.87;;;11.80;99.90;;;;;;5069974;28;20452;-65
2022/05/03 00:25:10;;;;;;;6.93;4.50;;;12.00;99.90;;;;;;5069958;28;20457;-63
2022/05/03 00:27:38;;;;;;;7.03;4.47;;;11.90;99.90;;;;;;5069873;28;20449;-63
2022/05/03 00:30:06;;;;;;;8.70;4.53;;;11.90;99.90;;;;;;5069876;28;20496;-64
2022/05/03 00:32:35;;;;;;;6.40;4.43;;;11.80;99.90;;;;;;5069920;28;20453;-63
2022/05/03 00:35:03;;;;;;;6.10;4.57;;;11.80;99.90;;;;;;5069599;28;20453;-62
2022/05/03 00:37:30;;;;;;;7.17;4.47;;;11.60;99.90;;;;;;5069882;28;20453;-65
2022/05/03 00:39:58;;;;;;;6.73;4.70;;;11.60;99.90;;;;;;5069567;28;20992;-64
2022/05/03 00:42:30;;;;;;;6.13;4.37;;;11.60;99.90;;;;;;5070000;28;20472;-64
2022/05/03 00:45:05;;;;;;;8.20;4.73;;;11.40;99.90;;;;;;5069457;28;20456;-65
2022/05/03 00:48:00;;;;;;;8.47;4.83;;;11.30;99.90;;;;;;5069439;28;20559;-62
2022/05/03 00:50:34;;;;;;;7.27;4.77;;;11.10;99.90;;;;;;5055815;28;20692;-63
2022/05/03 00:53:08;;;;;;;7.70;5.37;;;11.00;99.90;;;;;;5069532;28;20484;-63
2022/05/03 00:56:09;;;;;;;7.27;5.40;;;10.90;99.90;;;;;;5069809;28;20481;-64
2022/05/03 00:58:58;;;;;;;6.60;4.60;;;10.90;99.90;;;;;;5069055;28;20468;-64
2022/05/03 01:01:33;;;;;;;6.90;5.07;;;11.00;99.90;;;;;;5069391;28;20457;-63
2022/05/03 01:04:09;;;;;;;5.70;4.40;;;11.00;99.90;;;;;;5069105;28;20545;-63
2022/05/03 01:06:44;;;;;;;6.80;4.60;;;11.00;99.90;;;;;;5069125;28;20535;-63
2022/05/03 01:09:11;;;;;;;7.80;4.90;;;10.90;99.90;;;;;;5068974;28;20996;-64
2022/05/03 01:11:47;;;;;;;7.30;4.93;;;10.90;99.90;;;;;;5069061;28;20969;-65
2022/05/03 01:14:31;;;;;;;8.20;5.60;;;10.80;99.90;;;;;;5069424;28;20545;-65
2022/05/03 01:17:03;;;;;;;6.80;5.57;;;10.90;99.90;;;;;;5069119;28;20549;-63
2022/05/03 01:19:52;;;;;;;6.90;4.80;;;11.00;99.90;;;;;;5068838;28;20465;-63
2022/05/03 01:22:40;;;;;;;7.80;5.13;;;11.00;99.90;;;;;;5069226;28;20461;-64
2022/05/03 01:25:28;;;;;;;6.90;5.00;;;10.90;99.90;;;;;;5069396;28;20977;-63
2022/05/03 01:28:08;;;;;;;6.37;4.87;;;11.00;99.90;;;;;;5068894;28;20449;-64
2022/05/03 01:30:38;;;;;;;8.33;4.77;;;11.00;99.90;;;;;;5069126;28;20980;-64
2022/05/03 01:33:08;;;;;;;6.57;5.07;;;11.00;99.90;;;;;;5069280;28;20464;-64
2022/05/03 01:35:39;;;;;;;6.50;4.67;;;11.10;99.90;;;;;;5069320;28;20456;-64
2022/05/03 01:38:16;;;;;;;7.20;4.67;;;11.20;99.90;;;;;;5068920;28;20499;-64
2022/05/03 01:41:04;;;;;;;7.40;5.60;;;11.20;99.90;;;;;;5068632;28;20972;-63
2022/05/03 01:43:51;;;;;;;7.40;4.73;;;11.20;99.90;;;;;;5069289;28;20449;-65
2022/05/03 01:46:24;;;;;;;5.80;4.13;;;11.30;99.90;;;;;;5069097;28;20448;-63
2022/05/03 01:51:57;;;;;;;5.70;3.80;;;11.20;99.90;;;;;;5073075;28;20511;-64
2022/05/03 01:55:06;;;;;;;6.17;4.40;;;11.10;99.90;;;;;;5072916;28;20876;-64
2022/05/03 01:57:48;;;;;;;5.70;4.60;;;11.10;99.90;;;;;;5036100;28;20469;-64
2022/05/03 02:00:15;;;;;;;7.03;4.03;;;11.10;99.90;;;;;;5072829;28;20567;-64
2022/05/03 02:03:01;;;;;;;7.13;3.93;;;11.10;99.90;;;;;;5072462;28;20453;-64
2022/05/03 02:05:43;;;;;;;6.87;4.80;;;11.30;99.90;;;;;;5072304;28;20492;-64
2022/05/03 02:08:14;;;;;;;6.23;4.80;;;11.40;99.90;;;;;;5072502;28;20469;-65
2022/05/03 02:10:57;;;;;;;6.10;4.37;;;11.30;99.90;;;;;;5071535;28;20488;-64
2022/05/03 02:16:45;;;;;;;5.83;4.40;;;11.10;99.90;;;;;;5048108;28;20563;-64
2022/05/03 02:19:38;;;;;;;6.53;4.87;;;11.10;99.90;;;;;;5052435;28;20669;-64
2022/05/03 02:22:25;;;;;;;5.93;4.47;;;11.00;99.90;;;;;;5052144;28;20477;-64
2022/05/03 02:25:02;;;;;;;5.73;4.77;;;11.00;99.90;;;;;;5052281;28;20457;-64
2022/05/03 02:27:32;;;;;;;7.10;5.20;;;11.10;99.90;;;;;;5052228;28;20891;-63
2022/05/03 02:30:04;;;;;;;5.60;4.50;;;11.00;99.90;;;;;;5051918;28;20493;-63
2022/05/03 02:32:41;;;;;;;6.07;4.60;;;11.10;99.90;;;;;;5052167;28;20466;-63
2022/05/03 02:35:18;;;;;;;7.47;5.67;;;11.10;99.90;;;;;;5052167;28;20453;-64
2022/05/03 02:37:49;;;;;;;10.60;5.73;;;11.10;99.90;;;;;;5051991;28;20453;-63
2022/05/03 02:40:19;;;;;;;7.27;5.50;;;11.00;99.90;;;;;;5051535;28;20453;-65
2022/05/03 02:42:47;;;;;;;7.80;5.63;;;10.90;99.90;;;;;;5051798;28;20457;-63
2022/05/03 02:45:15;;;;;;;6.63;5.47;;;10.90;99.90;;;;;;5051975;28;20453;-64
2022/05/03 02:48:02;;;;;;;6.50;5.60;;;10.90;99.90;;;;;;5052066;28;20461;-64
2022/05/03 02:50:36;;;;;;;8.70;5.40;;;10.80;99.90;;;;;;5051789;28;20489;-64
2022/05/03 02:53:07;;;;;;;7.50;5.20;;;10.80;99.90;;;;;;5051503;28;20849;-64
2022/05/03 02:55:44;;;;;;;7.07;5.70;;;10.80;99.90;;;;;;5051753;28;20450;-64
2022/05/03 02:58:26;;;;;;;7.20;5.53;;;10.70;99.90;;;;;;5051345;28;20481;-64
2022/05/03 03:04:05;;;;;;;7.50;5.50;;;10.60;99.90;;;;;;5051230;28;20473;-63
2022/05/03 03:06:35;;;;;;;6.80;5.10;;;10.70;99.90;;;;;;5051589;28;20852;-65
2022/05/03 03:09:03;;;;;;;7.60;5.27;;;10.70;99.90;;;;;;5051124;28;20474;-63
2022/05/03 03:11:53;;;;;;;6.27;5.50;;;10.80;99.90;;;;;;5057132;28;20555;-64
2022/05/03 03:14:34;;;;;;;7.00;5.90;;;10.70;99.90;;;;;;5071332;28;20449;-64
2022/05/03 03:17:05;;;;;;;8.97;6.60;;;10.80;99.90;;;;;;5071517;28;20530;-64
2022/05/03 03:20:01;;;;;;;8.93;7.10;;;10.80;99.90;;;;;;5071373;28;20472;-64
2022/05/03 03:22:32;;;;;;;9.90;6.37;;;10.80;99.90;;;;;;5065609;28;20456;-65
2022/05/03 03:25:00;;;;;;;8.30;5.80;;;10.80;99.90;;;;;;5071226;28;20844;-65
2022/05/03 03:27:29;;;;;;;8.37;6.40;;;10.90;99.90;;;;;;5071348;28;21122;-65
2022/05/03 03:29:58;;;;;;;8.33;6.43;;;10.90;99.90;;;;;;5070974;28;20497;-65
2022/05/03 03:32:27;;;;;;;7.57;6.33;;;10.90;99.90;;;;;;5070489;28;21265;-66
2022/05/03 03:34:55;;;;;;;8.13;5.97;;;10.90;99.90;;;;;;5070848;28;20460;-65
2022/05/03 03:37:25;;;;;;;7.33;6.30;;;10.90;99.90;;;;;;5070769;28;20548;-65
2022/05/03 03:39:53;;;;;;;10.87;6.57;;;10.90;99.90;;;;;;5070680;28;20846;-63
2022/05/03 03:42:21;;;;;;;7.00;6.17;;;11.00;99.90;;;;;;5070834;28;20480;-65
2022/05/03 03:44:49;;;;;;;7.23;5.60;;;11.00;99.90;;;;;;5070943;28;20449;-64
2022/05/03 03:47:16;;;;;;;7.97;6.13;;;11.10;99.90;;;;;;5070280;28;20452;-65
2022/05/03 03:49:44;;;;;;;7.43;5.60;;;11.20;99.90;;;;;;5070600;28;20489;-64
2022/05/03 03:52:13;;;;;;;10.93;6.60;;;11.30;99.90;;;;;;5070783;28;20936;-66
2022/05/03 03:54:41;;;;;;;7.93;6.40;;;11.40;99.90;;;;;;5070695;28;20453;-65
2022/05/03 03:57:10;;;;;;;8.90;6.10;;;11.50;99.90;;;;;;5070414;28;20852;-64
2022/05/03 03:59:38;;;;;;;8.17;5.80;;;11.60;99.90;;;;;;5069878;28;20477;-64
2022/05/03 04:02:06;;;;;;;10.80;6.13;;;11.60;99.90;;;;;;5070198;28;20457;-74
2022/05/03 04:04:37;;;;;;;7.13;5.50;;;11.70;99.90;;;;;;5069808;28;20906;-65
2022/05/03 04:07:05;;;;;;;8.57;5.77;;;11.80;99.90;;;;;;5070283;28;20453;-71
2022/05/03 04:09:32;;;;;;;9.20;6.03;;;11.80;99.90;;;;;;5069443;28;20489;-70
2022/05/03 04:12:01;;;;;;;8.17;5.80;;;11.80;99.90;;;;;;5070018;28;20814;-71
2022/05/03 04:14:30;;;;;;;6.83;5.47;;;11.70;99.90;;;;;;5069914;28;20452;-70
2022/05/03 04:16:57;;;;;;;7.47;6.00;;;11.70;99.90;;;;;;5070027;28;20495;-68
2022/05/03 04:19:25;;;;;;;6.17;5.33;;;11.80;99.90;;;;;;5070091;28;20473;-68
2022/05/03 04:21:52;;;;;;;9.23;6.07;;;11.90;99.90;;;;;;5070256;28;20460;-68
2022/05/03 04:24:19;;;;;;;8.87;6.57;;;11.90;99.90;;;;;;5069576;28;20544;-69
2022/05/03 04:26:46;;;;;;;7.30;5.60;;;11.90;99.90;;;;;;5069808;28;20540;-69
2022/05/03 04:29:14;;;;;;;8.17;5.53;;;11.80;99.90;;;;;;5069306;28;20469;-71
2022/05/03 04:31:42;;;;;;;9.30;6.77;;;11.50;99.90;;;;;;5069821;28;20493;-68
2022/05/03 04:34:09;;;;;;;9.20;6.47;;;11.40;99.90;;;;;;5069830;28;20453;-68
2022/05/03 04:36:36;;;;;;;7.50;5.53;;;11.30;99.90;;;;;;5069815;28;20465;-69
2022/05/03 04:39:04;;;;;;;7.20;5.57;;;11.20;99.90;;;;;;5069151;28;20529;-70
2022/05/03 04:41:32;;;;;;;7.60;5.60;;;11.20;99.90;;;;;;5069891;28;20458;-67
2022/05/03 04:43:59;;;;;;;8.07;5.90;;;11.10;99.90;;;;;;5069579;28;20456;-68
2022/05/03 04:46:26;;;;;;;7.80;6.37;;;11.20;99.90;;;;;;5069506;28;20536;-65
2022/05/03 04:48:55;;;;;;;8.80;6.30;;;11.30;99.90;;;;;;5069310;28;20476;-70
2022/05/03 04:51:25;;;;;;;8.33;6.23;;;11.30;99.90;;;;;;5069710;28;20515;-68
2022/05/03 04:53:53;;;;;;;9.40;6.00;;;11.20;99.90;;;;;;5069547;28;20458;-71
2022/05/03 04:56:21;;;;;;;6.60;5.30;;;11.20;99.90;;;;;;5069459;28;20933;-67
2022/05/03 04:58:49;;;;;;;7.10;5.60;;;11.00;99.90;;;;;;5069506;28;20477;-70
2022/05/03 05:01:16;;;;;;;7.00;4.90;;;10.90;99.90;;;;;;5069422;28;20453;-74
2022/05/03 05:03:44;;;;;;;8.33;5.70;;;10.90;99.90;;;;;;5069181;28;20488;-68
2022/05/03 05:06:13;;;;;;;6.60;4.80;;;11.00;99.90;;;;;;5069305;28;20463;-69
2022/05/03 05:08:41;;;;;;;6.30;4.40;;;10.90;99.90;;;;;;5068892;28;20509;-70
2022/05/03 05:11:09;;;;;;;6.40;4.60;;;11.00;99.90;;;;;;5068936;28;21010;-73
2022/05/03 05:13:37;;;;;;;6.63;3.97;;;11.10;99.90;;;;;;5069145;28;20457;-70
2022/05/03 05:16:06;;;;;;;6.73;4.13;;;11.20;99.90;;;;;;5069297;28;20452;-69
2022/05/03 05:18:33;;;;;;;6.50;5.10;;;11.20;99.90;;;;;;5069257;28;20507;-65
2022/05/03 05:21:00;;;;;;;5.37;4.17;;;11.20;99.90;;;;;;5070417;28;20520;-66
2022/05/03 05:23:29;;;;;;;6.30;4.23;;;11.10;99.90;;;;;;5073325;28;20460;-66
2022/05/03 05:25:56;;;;;;;6.50;4.70;;;10.90;99.90;;;;;;5073110;28;20491;-66
2022/05/03 05:28:24;;;;;;;8.40;4.20;;;10.90;99.90;;;;;;5073058;28;20477;-68
2022/05/03 05:30:52;;;;;;;7.40;4.93;;;11.00;99.90;;;;;;5073241;28;20492;-68
2022/05/03 05:33:20;;;;;;;6.43;3.90;;;11.10;99.90;;;;;;5073085;28;20485;-65
2022/05/03 05:35:47;;;;;;;5.10;3.73;;;10.90;99.90;;;;;;5072761;28;20450;-65
2022/05/03 05:38:16;;;;;;;5.97;3.77;;;10.80;99.90;;;;;;5072739;28;20483;-67
2022/05/03 05:40:46;;;;;;;7.20;4.60;;;10.80;99.90;;;;;;5072929;28;20459;-67
2022/05/03 05:43:13;;;;;;;5.27;3.83;;;10.90;99.90;;;;;;5072375;28;20445;-64
2022/05/03 05:45:40;;;;;;;6.00;3.93;;;11.00;99.90;;;;;;5072786;28;20551;-65
2022/05/03 05:48:08;;;;;;;6.43;4.67;;;11.10;99.90;;;;;;5072390;28;20472;-65
2022/05/03 05:50:35;;;;;;;7.20;4.20;;;11.10;99.90;;;;;;5072421;28;20511;-65
2022/05/03 05:55:48;;;;;;;6.70;3.70;;;11.30;99.90;;;;;;5072860;28;20432;-65
2022/05/03 05:58:15;;;;;;;6.63;3.97;;;11.20;99.90;;;;;;5072762;28;20531;-64
2022/05/03 06:00:43;;;;;;;6.87;3.67;;;11.40;99.90;;;;;;5072671;28;20491;-64
2022/05/03 06:03:10;;;;;;;5.40;4.10;;;11.50;99.90;;;;;;5072422;28;20499;-65
2022/05/03 06:05:38;;;;;;;6.57;3.53;;;11.50;99.90;;;;;;5072195;28;20496;-65
2022/05/03 06:08:06;;;;;;;6.63;3.83;;;11.60;99.90;;;;;;5072532;28;20460;-65
2022/05/03 06:10:33;;;;;;;6.03;3.63;;;11.60;99.90;;;;;;5072412;28;21096;-65
2022/05/03 06:13:02;;;;;;;5.90;3.23;;;11.70;99.90;;;;;;5072247;28;20452;-65
2022/05/03 06:15:29;;;;;;;6.00;4.00;;;11.80;99.90;;;;;;5072332;28;20480;-65
2022/05/03 06:17:56;;;;;;;6.47;4.10;;;12.00;99.90;;;;;;5072338;28;20451;-66
2022/05/03 06:20:24;;;;;;;6.77;3.80;;;12.00;99.90;;;;;;5072350;28;20445;-66
2022/05/03 06:22:51;;;;;;;5.87;4.27;;;12.10;99.90;;;;;;5072270;28;20460;-65
2022/05/03 06:25:18;;;;;;;10.50;4.10;;;12.20;99.90;;;;;;5071730;28;20480;-65
2022/05/03 06:27:45;;;;;;;7.37;4.00;;;12.20;99.90;;;;;;5071907;28;20456;-65
2022/05/03 06:30:14;;;;;;;7.53;3.93;;;12.40;99.90;;;;;;5071809;28;20480;-66
2022/05/03 06:32:43;;;;;;;6.93;3.80;;;12.60;99.90;;;;;;5071252;28;20514;-66
2022/05/03 06:35:11;;;;;;;6.53;3.83;;;12.70;99.90;;;;;;5071886;28;20566;-66
2022/05/03 06:37:39;;;;;;;6.03;3.60;;;12.90;99.90;;;;;;5071907;28;20787;-65
2022/05/03 06:40:09;;;;;;;5.37;3.50;;;13.20;99.90;;;;;;5072131;28;20455;-66
2022/05/03 06:42:37;;;;;;;5.43;3.43;;;13.40;99.90;;;;;;5072033;28;20528;-65
2022/05/03 06:45:05;;;;;;;7.47;4.33;;;13.50;99.90;;;;;;5071691;28;20561;-65
2022/05/03 06:47:34;;;;;;;5.03;2.93;;;13.60;99.90;;;;;;5071768;28;20514;-66
2022/05/03 06:50:01;;;;;;;6.53;3.50;;;13.70;99.90;;;;;;5071820;28;20460;-66
2022/05/03 06:52:28;;;;;;;8.17;3.60;;;13.80;99.90;;;;;;5071369;28;21796;-65
2022/05/03 06:54:55;;;;;;;6.33;3.83;;;13.90;99.90;;;;;;5071227;28;20473;-66
2022/05/03 06:57:22;;;;;;;5.57;3.90;;;13.90;99.90;;;;;;5071547;28;20507;-65
2022/05/03 06:59:50;;;;;;;6.20;3.73;;;14.10;99.90;;;;;;5071397;28;20449;-65
2022/05/03 07:02:17;;;;;;;6.73;3.80;;;14.30;99.90;;;;;;5071491;28;20789;-66
2022/05/03 07:04:46;;;;;;;8.80;5.43;;;14.40;99.90;;;;;;5070769;28;20495;-65
2022/05/03 07:07:13;;;;;;;6.60;3.47;;;14.50;99.90;;;;;;5071052;28;20456;-67
2022/05/03 07:09:42;;;;;;;5.70;3.30;;;14.50;99.90;;;;;;5071059;28;20459;-66
2022/05/03 07:12:10;;;;;;;9.07;4.13;;;14.50;99.90;;;;;;5065136;28;20522;-66
2022/05/03 07:14:37;;;;;;;8.30;3.40;;;14.50;99.90;;;;;;5051236;28;20978;-66
2022/05/03 07:17:05;;;;;;;6.80;4.10;;;14.60;99.90;;;;;;5051149;28;20458;-65
2022/05/03 07:25:02;;;;;;;5.93;4.30;;;15.00;99.90;;;;;;5051124;28;20430;-66
2022/05/03 07:27:30;;;;;;;8.10;3.90;;;15.10;99.90;;;;;;5051074;28;20477;-66
2022/05/03 07:29:57;;;;;;;5.90;3.90;;;15.10;99.90;;;;;;5050944;28;20445;-66
2022/05/03 07:32:24;;;;;;;5.67;3.90;;;15.00;99.90;;;;;;5050555;28;20486;-65
2022/05/03 07:34:52;;;;;;;6.30;4.03;;;15.00;99.90;;;;;;5050962;28;20454;-67
2022/05/03 07:37:20;;;;;;;5.90;3.50;;;15.10;99.90;;;;;;5050527;28;20474;-65
2022/05/03 07:39:47;;;;;;;6.37;3.37;;;15.10;99.90;;;;;;5050432;28;20454;-65
2022/05/03 07:42:14;;;;;;;6.00;3.60;;;15.10;99.90;;;;;;5050665;28;20446;-65
2022/05/03 07:44:41;;;;;;;5.33;3.30;;;15.20;99.90;;;;;;5049628;28;20454;-66
2022/05/03 07:47:09;;;;;;;5.63;3.30;;;15.20;99.90;;;;;;5050322;28;20801;-65
2022/05/03 07:49:36;;;;;;;8.03;3.67;;;15.00;99.90;;;;;;5050254;28;20454;-66
2022/05/03 07:52:03;;;;;;;5.13;3.17;;;15.00;99.90;;;;;;5050278;28;20493;-64
2022/05/03 07:54:31;;;;;;;5.23;3.60;;;14.80;99.90;;;;;;5049976;28;20450;-66
2022/05/03 07:56:58;;;;;;;5.97;3.67;;;14.80;99.90;;;;;;5050271;28;20918;-67
2022/05/03 07:59:26;;;;;;;6.40;3.40;;;14.70;99.90;;;;;;5050210;28;20477;-67
2022/05/03 08:01:54;;;;;;;7.40;3.70;;;14.60;99.90;;;;;;5050013;28;20489;-66
2022/05/03 08:04:21;;;;;;;5.60;3.20;;;14.60;99.90;;;;;;5049959;28;20494;-67
2022/05/03 08:06:48;;;;;;;7.30;3.30;;;14.60;99.90;;;;;;5050143;28;20454;-66
2022/05/03 08:09:15;;;;;;;8.10;3.40;;;14.70;99.90;;;;;;5050040;28;20477;-67
2022/05/03 08:11:44;;;;;;;5.30;3.30;;;14.80;99.90;;;;;;5050660;28;20547;-64
2022/05/03 08:14:11;;;;;;;5.63;2.30;;;14.90;99.90;;;;;;5069495;28;20448;-65
2022/05/03 08:16:39;;;;;;;4.53;2.70;;;14.70;99.90;;;;;;5069874;28;20453;-66
2022/05/03 08:19:06;;;;;;;8.03;2.93;;;14.70;99.90;;;;;;5069726;28;20508;-65
2022/05/03 08:21:35;;;;;;;7.00;3.57;;;14.60;99.90;;;;;;5069717;28;20506;-65
2022/05/03 08:24:02;;;;;;;5.03;2.60;;;14.50;99.90;;;;;;5069831;28;20544;-66
2022/05/03 08:26:30;;;;;;;4.57;2.90;;;14.60;99.90;;;;;;5069266;28;20468;-67
2022/05/03 08:28:59;;;;;;;5.00;2.87;;;14.50;99.90;;;;;;5069343;28;20520;-66
2022/05/03 08:31:26;;;;;;;4.40;2.27;;;14.60;99.90;;;;;;5069455;28;20611;-65
2022/05/03 08:33:53;;;;;;;4.57;2.73;;;14.60;99.90;;;;;;5069679;28;20830;-64
2022/05/03 08:36:21;;;;;;;6.80;2.67;;;14.60;99.90;;;;;;5069625;28;20464;-65
2022/05/03 08:44:27;;;;;;;3.40;1.80;;;14.90;99.90;;;;;;5043969;28;20436;-66
2022/05/03 08:46:56;;;;;;;7.80;2.93;;;14.90;99.90;;;;;;5069429;28;20457;-66
2022/05/03 08:49:24;;;;;;;4.97;2.27;;;15.00;99.90;;;;;;5068995;28;20559;-64
2022/05/03 08:51:53;;;;;;;4.50;2.83;;;14.90;99.90;;;;;;5069072;28;21004;-65
2022/05/03 08:54:21;;;;;;;4.63;2.67;;;14.90;99.90;;;;;;5069297;28;20565;-65
2022/05/03 08:56:49;;;;;;;4.53;2.57;;;15.10;99.90;;;;;;5068808;28;20539;-64
2022/05/03 08:59:16;;;;;;;5.43;3.10;;;15.20;99.90;;;;;;5069336;28;20496;-67
2022/05/03 09:01:45;;;;;;;5.00;3.00;;;15.10;99.90;;;;;;5069262;28;20639;-65
2022/05/03 09:04:12;;;;;;;6.00;2.37;;;15.00;99.90;;;;;;5068810;28;20896;-65
2022/05/03 09:06:45;;;;;;;6.20;2.83;;;15.30;99.90;;;;;;5069206;28;20445;-66
2022/05/03 09:09:13;;;;;;;4.50;2.70;;;15.30;99.90;;;;;;5069357;28;20476;-65
2022/05/03 09:11:46;;;;;;;5.37;2.77;;;15.40;99.90;;;;;;5069237;28;21079;-65
2022/05/03 09:14:13;;;;;;;5.13;3.00;;;15.60;99.90;;;;;;5069526;28;20945;-66
2022/05/03 09:16:51;;;;;;;7.10;4.17;;;15.80;99.90;;;;;;5068991;28;20492;-65
2022/05/03 09:19:25;;;;;;;5.40;3.00;;;15.90;99.90;;;;;;5069168;28;20471;-64
2022/05/03 09:24:54;;;;;;;4.03;2.30;;;15.80;99.90;;;;;;5068894;28;20439;-66
2022/05/03 09:27:24;;;;;;;5.77;3.00;;;15.80;99.90;;;;;;5069223;28;20475;-67
2022/05/03 09:30:05;;;;;;;5.93;3.40;;;16.00;99.90;;;;;;5069087;28;20473;-67
2022/05/03 09:32:41;;;;;;;5.93;2.67;;;16.00;99.90;;;;;;5069230;28;20484;-66
2022/05/03 09:35:30;;;;;;;7.03;2.67;;;16.00;99.90;;;;;;5069095;28;20459;-65
2022/05/03 09:37:58;;;;;;;7.70;3.50;;;16.20;99.90;;;;;;5068746;28;20458;-67
2022/05/03 09:40:26;;;;;;;4.30;2.57;;;16.30;99.90;;;;;;5068716;28;20551;-65
2022/05/03 09:42:54;;;;;;;4.67;2.90;;;16.30;99.90;;;;;;5069272;28;20480;-65
2022/05/03 09:45:23;;;;;;;4.83;2.50;;;16.40;99.90;;;;;;5068954;28;20480;-66
2022/05/03 09:47:53;;;;;;;6.67;2.83;;;16.40;99.90;;;;;;5068448;28;20536;-66
2022/05/03 09:50:28;;;;;;;4.50;2.50;;;16.60;99.90;;;;;;5068531;28;20456;-66
2022/05/03 09:52:56;;;;;;;4.43;2.67;;;16.70;99.90;;;;;;5068777;28;20516;-66
2022/05/03 09:55:31;;;;;;;4.30;2.50;;;16.90;99.90;;;;;;5068216;28;20783;-66
2022/05/03 09:58:02;;;;;;;4.70;2.53;;;17.00;99.90;;;;;;5068753;28;20453;-66
2022/05/03 10:00:31;;;;;;;4.37;2.37;;;17.20;99.90;;;;;;5068368;28;20463;-65
2022/05/03 10:03:01;;;;;;;5.00;2.40;;;17.30;99.90;;;;;;5068277;28;20538;-65
2022/05/03 10:05:29;;;;;;;4.47;2.53;;;17.40;99.90;;;;;;5068243;28;20527;-64
2022/05/03 10:07:56;;;;;;;6.07;1.93;;;17.60;99.90;;;;;;5069595;28;20453;-67
2022/05/03 10:10:24;;;;;;;5.40;2.60;;;17.60;99.90;;;;;;5071870;28;20464;-66
2022/05/03 10:12:53;;;;;;;6.33;2.40;;;17.60;99.90;;;;;;5064092;28;20496;-68
2022/05/03 10:21:03;;;;;;;4.97;2.43;;;17.10;99.90;;;;;;5052244;28;20445;-66
2022/05/03 10:23:33;;;;;;;11.07;2.20;;;17.00;99.90;;;;;;5052047;28;20946;-66
2022/05/03 10:26:01;;;;;;;3.87;1.60;;;17.00;99.90;;;;;;5052280;28;20508;-66
2022/05/03 10:29:01;;;;;;;4.07;1.90;;;17.00;99.60;;;;;;5051517;28;20473;-66
2022/05/03 10:31:28;;;;;;;3.60;1.40;;;16.90;99.10;;;;;;5065973;28;20580;-66
2022/05/03 10:33:59;;;;;;;4.17;1.87;;;16.70;98.90;;;;;;5071680;28;20452;-67
2022/05/03 10:36:48;;;;;;;5.60;1.70;;;16.60;99.80;;;;;;5071758;28;20452;-65
2022/05/03 10:39:25;;;;;;;4.33;1.90;;;16.50;99.90;;;;;;5071792;28;20903;-66
2022/05/03 10:41:56;;;;;;;3.90;1.77;;;16.40;99.90;;;;;;5071751;28;20460;-66
2022/05/03 10:44:41;;;;;;;3.90;1.90;;;16.20;99.90;;;;;;5071641;28;20445;-66
2022/05/03 10:47:09;;;;;;;4.87;1.97;;;16.20;99.90;;;;;;5071620;28;20544;-66
2022/05/03 10:50:15;;;;;;;4.53;1.90;;;16.20;99.70;;;;;;5072083;28;20495;-65
2022/05/03 10:53:06;;;;;;;5.70;1.80;;;16.00;99.90;;;;;;5071269;28;20583;-66
2022/05/03 10:55:35;;;;;;;5.47;2.43;;;16.10;99.70;;;;;;5071449;28;20460;-65
2022/05/03 10:58:19;;;;;;;4.17;2.13;;;16.10;99.90;;;;;;5071670;28;20529;-65
2022/05/03 11:01:04;;;;;;;5.00;2.40;;;16.10;99.90;;;;;;5071088;28;20809;-65
2022/05/03 11:03:31;;;;;;;4.57;1.97;;;16.30;99.90;;;;;;5070879;28;20479;-65
2022/05/03 11:06:49;;;;;;;4.53;2.20;;;16.40;99.40;;;;;;5071121;28;20456;-66
2022/05/03 11:09:26;;;;;;;4.57;2.13;;;16.50;99.40;;;;;;5028197;28;21081;-67
2022/05/03 11:11:55;;;;;;;4.30;2.10;;;16.60;99.10;;;;;;5064306;28;20480;-65
2022/05/03 11:14:53;;;;;;;4.47;2.33;;;16.60;99.60;;;;;;5052394;28;20457;-64
2022/05/03 11:17:21;;;;;;;4.50;2.40;;;16.70;99.30;;;;;;5050584;28;20922;-66
2022/05/03 11:19:51;;;;;;;10.27;6.50;;;16.70;99.20;;;;;;5050482;28;20466;-65
2022/05/03 11:22:19;;;;;;;5.10;3.53;;;17.10;99.90;;;;;;5050856;28;20446;-64
2022/05/03 11:24:49;;;;;;;5.53;2.30;;;17.70;99.40;;;;;;5050685;28;20454;-67
2022/05/03 11:27:17;;;;;;;4.50;2.23;;;18.10;97.80;;;;;;5050951;28;20535;-65
2022/05/03 11:29:46;;;;;;;4.30;2.30;;;18.30;95.50;;;;;;5050632;28;20478;-66
2022/05/03 11:32:15;;;;;;;5.93;2.97;;;18.60;96.80;;;;;;5050212;28;20576;-66
2022/05/03 11:34:44;;;;;;;4.23;2.03;;;18.70;94.20;;;;;;5050690;28;20450;-68
2022/05/03 11:37:11;;;;;;;4.37;2.27;;;18.50;94.00;;;;;;5050549;28;20950;-64
2022/05/03 11:39:38;;;;;;;5.30;2.33;;;18.50;94.00;;;;;;5050726;28;20473;-65
2022/05/03 11:42:10;;;;;;;4.43;2.23;;;18.50;93.90;;;;;;5050600;28;20446;-67
2022/05/03 11:44:44;;;;;;;4.53;2.00;;;18.50;93.60;;;;;;5050494;28;20589;-66
2022/05/03 11:47:12;;;;;;;4.10;2.07;;;18.30;92.90;;;;;;5050396;28;20557;-66
2022/05/03 11:49:39;;;;;;;5.73;1.90;;;18.30;93.90;;;;;;5050292;28;20695;-69
2022/05/03 11:57:40;;;;;;;4.57;1.93;;;18.10;94.50;;;;;;5050365;28;20456;-66
2022/05/03 12:00:12;;;;;;;8.63;2.00;;;18.00;94.10;;;;;;5049932;28;20458;-71
2022/05/03 12:02:43;;;;;;;5.30;2.20;;;18.00;94.80;;;;;;5049965;28;20457;-70
2022/05/03 12:05:19;;;;;;;4.30;2.37;;;17.90;94.80;;;;;;5049641;28;20497;-70
2022/05/03 12:07:48;;;;;;;4.30;1.87;;;17.80;94.50;;;;;;5049825;28;20487;-70
2022/05/03 12:10:19;;;;;;;4.23;1.70;;;17.50;93.80;;;;;;5050012;28;20465;-71
2022/05/03 12:12:48;;;;;;;4.00;1.90;;;17.30;94.30;;;;;;5053977;28;20824;-73
2022/05/03 12:15:20;;;;;;;7.70;2.47;;;17.10;94.10;;;;;;5070107;28;20824;-72
2022/05/03 12:17:55;;;;;;;4.00;1.83;;;17.00;94.90;;;;;;5069382;28;20460;-75
2022/05/03 12:20:23;;;;;;;4.87;2.10;;;16.90;93.50;;;;;;5069647;28;20475;-71
2022/05/03 12:23:10;;;;;;;3.70;1.60;;;16.80;93.70;;;;;;5069640;28;20530;-73
2022/05/03 12:25:37;;;;;;;4.20;1.97;;;16.70;93.30;;;;;;5069914;28;20457;-74
2022/05/03 12:28:06;;;;;;;3.90;1.77;;;16.70;93.70;;;;;;5069884;28;20490;-73
2022/05/03 12:30:34;;;;;;;7.00;3.80;;;16.70;94.50;;;;;;5069093;28;20452;-71
2022/05/03 12:33:02;;;;;;;3.90;1.90;;;16.40;95.60;;;;;;5069669;28;20496;-70
2022/05/03 12:35:31;;;;;;;4.17;2.20;;;16.30;96.30;;;;;;5069468;28;20540;-75
2022/05/03 12:37:58;;;;;;;5.17;2.30;;;16.10;96.90;;;;;;5069350;28;20453;-71
2022/05/03 12:40:26;;;;;;;6.40;4.23;;;16.20;98.10;;;;;;5069587;28;20457;-70
2022/05/03 12:42:53;;;;;;;4.37;2.40;;;16.20;98.00;;;;;;5069502;28;20457;-72
2022/05/03 12:45:31;;;;;;;4.80;2.03;;;16.30;98.40;;;;;;5069343;28;20453;-70
2022/05/03 12:47:58;;;;;;;4.50;1.93;;;16.40;99.20;;;;;;5069164;28;20558;-71
2022/05/03 12:50:25;;;;;;;5.50;2.30;;;16.40;98.90;;;;;;5068907;28;20489;-73
2022/05/03 12:52:52;;;;;;;8.97;6.30;;;16.30;98.40;;;;;;5069341;28;20538;-74
2022/05/03 12:55:19;;;;;;;5.80;2.67;;;16.20;98.80;;;;;;5069198;28;20452;-72
2022/05/03 13:00:36;;;;;;;5.47;2.17;;;16.20;99.30;;;;;;5069252;28;20427;-75
2022/05/03 13:03:04;;;;;;;5.20;1.90;;;16.20;99.60;;;;;;5069762;28;20437;-73
2022/05/03 13:05:31;;;;;;;3.90;1.90;;;16.10;99.50;;;;;;5068772;28;20523;-73
2022/05/03 13:07:58;;;;;;;4.50;2.17;;;16.00;99.60;;;;;;5069089;28;20472;-74
2022/05/03 13:10:25;;;;;;;4.63;2.27;;;15.90;99.20;;;;;;5069280;28;20521;-68
2022/05/03 13:12:52;;;;;;;6.73;2.07;;;15.70;99.20;;;;;;5069987;28;20571;-73
2022/05/03 13:15:20;;;;;;;4.30;1.70;;;15.30;99.30;;;;;;5069433;28;20948;-64
2022/05/03 13:17:48;;;;;;;4.30;1.93;;;14.80;99.90;;;;;;5069355;28;20961;-63
2022/05/03 13:20:15;;;;;;;3.37;1.53;;;14.50;99.90;;;;;;5069486;28;20455;-64
2022/05/03 13:22:42;;;;;;;4.70;1.80;;;14.20;99.90;;;;;;5069120;28;20450;-63
2022/05/03 13:25:10;;;;;;;5.70;1.90;;;14.00;99.90;;;;;;5069195;28;20795;-64
2022/05/03 13:27:37;;;;;;;4.33;1.83;;;14.00;99.90;;;;;;5069268;28;20471;-63
2022/05/03 13:30:05;;;;;;;5.90;2.00;;;14.10;99.90;;;;;;5069031;28;20556;-63
2022/05/03 13:32:32;;;;;;;4.63;2.30;;;14.20;99.90;;;;;;5069184;28;20491;-64
2022/05/03 13:35:01;;;;;;;4.00;1.80;;;14.20;99.90;;;;;;5069010;28;20565;-64
2022/05/03 13:40:30;;;;;;;4.37;1.77;;;13.50;99.90;;;;;;5068879;28;20530;-65
2022/05/03 13:42:59;;;;;;;4.33;1.77;;;13.40;99.90;;;;;;5071888;28;20503;-64
2022/05/03 13:45:26;;;;;;;5.20;2.03;;;13.20;99.90;;;;;;5072796;28;20456;-66
2022/05/03 13:47:53;;;;;;;3.60;1.73;;;13.20;99.90;;;;;;5072958;28;20855;-64